createdAt,value
2023-05-24T00:03:12.911Z,97094.13
2023-05-24T00:05:41.833Z,97090.27
2023-05-24T00:08:23.556Z,97090.52
2023-05-24T00:10:52.018Z,97087.70
2023-05-24T00:13:20.216Z,97083.19
2023-05-24T00:15:50.994Z,97082.33
2023-05-24T00:18:22.401Z,97081.20
2023-05-24T00:20:52.166Z,97079.20
2023-05-24T00:23:20.900Z,97077.95
2023-05-24T00:26:12.513Z,97079.90
2023-05-24T00:28:52.461Z,97078.90
2023-05-24T00:31:43.937Z,97073.88
2023-05-24T00:34:23.404Z,97076.41
2023-05-24T00:36:52.197Z,97074.02
2023-05-24T00:39:23.767Z,97074.99
2023-05-24T00:41:55.674Z,97070.04
2023-05-24T00:44:24.137Z,97068.75
2023-05-24T00:47:02.721Z,97067.27
2023-05-24T00:49:46.933Z,97067.11
2023-05-24T00:52:15.719Z,97067.70
2023-05-24T00:54:44.490Z,97065.75
2023-05-24T00:57:16.728Z,97065.81
2023-05-24T00:59:49.052Z,97063.66
2023-05-24T01:02:20.956Z,97064.66
2023-05-24T01:04:49.899Z,97066.52
2023-05-24T01:07:39.910Z,97074.50
2023-05-24T01:10:46.882Z,97088.38
2023-05-24T01:13:36.501Z,97109.55
2023-05-24T01:16:32.156Z,97119.95
2023-05-24T01:19:13.117Z,97116.14
2023-05-24T01:22:12.128Z,97118.88
2023-05-24T01:24:56.245Z,97120.33
2023-05-24T01:27:28.354Z,97115.82
2023-05-24T01:29:58.242Z,97111.99
2023-05-24T01:32:29.192Z,97103.39
2023-05-24T01:34:57.549Z,97098.54
2023-05-24T01:37:28.214Z,97096.61
2023-05-24T01:39:57.270Z,97100.65
2023-05-24T01:42:41.782Z,97100.20
2023-05-24T01:46:09.830Z,97094.17
2023-05-24T01:48:57.335Z,97091.77
2023-05-24T01:51:45.628Z,97087.96
2023-05-24T01:54:28.476Z,97085.29
2023-05-24T01:56:59.145Z,97079.77
2023-05-24T01:59:30.471Z,97081.55
2023-05-24T02:02:02.061Z,97079.60
2023-05-24T02:04:31.250Z,97085.83
2023-05-24T02:07:02.404Z,97088.33
2023-05-24T02:09:30.906Z,97089.06
2023-05-24T02:12:26.474Z,97085.75
2023-05-24T02:15:24.985Z,97081.23
2023-05-24T02:17:54.800Z,97080.96
2023-05-24T02:20:37.839Z,97084.49
2023-05-24T02:23:26.523Z,97086.95
2023-05-24T02:25:57.470Z,97090.26
2023-05-24T02:28:45.673Z,97104.97
2023-05-24T02:31:17.387Z,97104.77
2023-05-24T02:33:46.365Z,97101.80
2023-05-24T02:36:17.132Z,97098.80
2023-05-24T02:38:45.829Z,97097.80
2023-05-24T02:41:18.120Z,97096.16
2023-05-24T02:44:01.249Z,97094.92
2023-05-24T02:46:41.551Z,97095.45
2023-05-24T02:49:24.301Z,97097.56
2023-05-24T02:52:18.498Z,97099.34
2023-05-24T02:54:52.530Z,97102.54
2023-05-24T02:57:26.813Z,97108.38
2023-05-24T03:00:00.458Z,97112.16
2023-05-24T03:02:41.626Z,97118.02
2023-05-24T03:05:10.109Z,97122.29
2023-05-24T03:07:38.878Z,97119.85
2023-05-24T03:10:10.914Z,97123.86
2023-05-24T03:12:41.713Z,97126.19
2023-05-24T03:15:10.499Z,97123.10
2023-05-24T03:17:38.630Z,97122.44
2023-05-24T03:20:08.070Z,97121.83
2023-05-24T03:22:36.494Z,97117.08
2023-05-24T03:25:09.861Z,97112.39
2023-05-24T03:27:38.163Z,97106.86
2023-05-24T03:30:07.886Z,97104.48
2023-05-24T03:32:41.169Z,97102.45
2023-05-24T03:35:12.250Z,97099.45
2023-05-24T03:37:41.024Z,97094.63
2023-05-24T03:40:10.574Z,97095.84
2023-05-24T03:42:59.995Z,97094.58
2023-05-24T03:45:55.383Z,97094.27
2023-05-24T03:48:23.892Z,97099.27
2023-05-24T03:50:52.717Z,97106.27
2023-05-24T03:53:23.087Z,97107.04
2023-05-24T03:55:54.387Z,97112.02
2023-05-24T03:58:23.490Z,97108.05
2023-05-24T04:00:51.786Z,97106.13
2023-05-24T04:03:20.225Z,97105.64
2023-05-24T04:05:49.092Z,97105.70
2023-05-24T04:08:17.937Z,97103.02
2023-05-24T04:10:46.144Z,97100.29
2023-05-24T04:13:16.978Z,97098.83
2023-05-24T04:15:45.082Z,97099.36
2023-05-24T04:18:13.513Z,97098.95
2023-05-24T04:20:42.095Z,97097.08
2023-05-24T04:23:31.084Z,97089.92
2023-05-24T04:25:59.364Z,97090.23
2023-05-24T04:28:27.690Z,97090.81
2023-05-24T04:30:59.060Z,97088.29
2023-05-24T04:33:28.179Z,97086.11
2023-05-24T04:35:56.273Z,97086.59
2023-05-24T04:38:25.149Z,97084.02
2023-05-24T04:40:53.207Z,97079.36
2023-05-24T04:43:21.485Z,97076.55
2023-05-24T04:45:49.792Z,97076.33
2023-05-24T04:48:18.605Z,97073.59
2023-05-24T04:50:47.750Z,97073.29
2023-05-24T04:53:15.847Z,97076.10
2023-05-24T04:55:44.222Z,97075.93
2023-05-24T04:58:12.491Z,97076.48
2023-05-24T05:00:40.965Z,97078.39
2023-05-24T05:03:10.614Z,97082.81
2023-05-24T05:05:38.954Z,97088.52
2023-05-24T05:08:07.166Z,97084.91
2023-05-24T05:10:36.233Z,97089.31
2023-05-24T05:13:04.768Z,97094.92
2023-05-24T05:15:32.988Z,97099.48
2023-05-24T05:18:01.216Z,97097.70
2023-05-24T05:20:30.205Z,97099.90
2023-05-24T05:22:58.441Z,97101.70
2023-05-24T06:06:50.130Z,97127.06
2023-05-24T06:09:18.127Z,97130.88
2023-05-24T06:11:46.315Z,97133.35
2023-05-24T06:14:20.008Z,97133.52
2023-05-24T06:16:48.619Z,97137.02
2023-05-24T06:19:17.031Z,97139.23
2023-05-24T06:21:48.602Z,97137.97
2023-05-24T06:24:21.454Z,97139.37
2023-05-24T06:26:51.277Z,97138.28
2023-05-24T06:29:22.836Z,97138.84
2023-05-24T06:31:51.435Z,97140.14
2023-05-24T06:34:21.700Z,97142.00
2023-05-24T06:36:51.478Z,97138.77
2023-05-24T06:39:19.989Z,97139.15
2023-05-24T06:41:51.123Z,97139.92
2023-05-24T06:44:25.325Z,97140.31
2023-05-24T06:46:53.608Z,97139.86
2023-05-24T06:49:22.549Z,97136.20
2023-05-24T06:51:50.543Z,97134.52
2023-05-24T06:54:18.753Z,97132.96
2023-05-24T06:56:46.615Z,97130.92
2023-05-24T06:59:14.707Z,97131.81
2023-05-24T07:01:44.135Z,97130.32
2023-05-24T07:04:12.325Z,97131.30
2023-05-24T07:06:40.400Z,97136.26
2023-05-24T07:09:10.606Z,97140.60
2023-05-24T07:11:38.531Z,97139.81
2023-05-24T07:14:06.700Z,97138.29
2023-05-24T07:16:34.950Z,97134.59
2023-05-24T07:19:04.843Z,97135.12
2023-05-24T07:21:33.220Z,97134.88
2023-05-24T07:24:03.994Z,97128.10
2023-05-24T07:26:31.957Z,97128.71
2023-05-24T07:28:59.923Z,97130.32
2023-05-24T07:31:31.470Z,97129.75
2023-05-24T07:33:59.461Z,97131.31
2023-05-24T07:36:30.483Z,97132.40
2023-05-24T07:39:04.664Z,97130.00
2023-05-24T07:41:33.560Z,97127.11
2023-05-24T07:44:01.938Z,97126.28
2023-05-24T07:46:29.951Z,97128.81
2023-05-24T07:48:58.499Z,97127.91
2023-05-24T07:51:26.635Z,97130.39
2023-05-24T07:53:54.907Z,97132.92
2023-05-24T07:56:23.812Z,97139.17
2023-05-24T07:58:52.040Z,97138.45
2023-05-24T08:01:20.034Z,97143.45
2023-05-24T08:03:48.663Z,97142.95
2023-05-24T08:06:16.713Z,97142.42
2023-05-24T08:08:45.962Z,97140.63
2023-05-24T08:11:14.180Z,97138.53
2023-05-24T08:13:42.260Z,97141.98
2023-05-24T08:16:10.395Z,97143.39
2023-05-24T08:18:38.544Z,97141.39
2023-05-24T08:21:06.883Z,97142.59
2023-05-24T08:23:35.182Z,97147.52
2023-05-24T08:26:03.120Z,97144.80
2023-05-24T08:28:31.172Z,97140.89
2023-05-24T08:30:59.504Z,97143.31
2023-05-24T08:33:29.133Z,97142.74
2023-05-24T08:35:57.232Z,97139.77
2023-05-24T08:38:25.359Z,97137.03
2023-05-24T08:40:53.552Z,97137.41
2023-05-24T08:43:22.945Z,97138.50
2023-05-24T08:45:52.627Z,97138.25
2023-05-24T08:48:21.158Z,97138.98
2023-05-24T08:50:49.351Z,97142.38
2023-05-24T08:53:19.147Z,97146.79
2023-05-24T08:55:48.587Z,97147.70
2023-05-24T08:58:17.002Z,97147.46
2023-05-24T09:00:45.763Z,97145.79
2023-05-24T09:03:14.317Z,97147.10
2023-05-24T09:05:42.896Z,97148.98
2023-05-24T09:08:13.493Z,97147.70
2023-05-24T09:10:54.133Z,97148.20
2023-05-24T09:13:25.299Z,97149.20
2023-05-24T09:15:53.819Z,97155.48
2023-05-24T09:18:22.394Z,97161.00
2023-05-24T09:20:51.448Z,97161.91
2023-05-24T09:23:19.732Z,97162.70
2023-05-24T09:25:48.636Z,97165.13
2023-05-24T09:28:18.463Z,97167.05
2023-05-24T09:30:58.874Z,97171.39
2023-05-24T09:33:34.924Z,97171.08
2023-05-24T09:36:04.641Z,97164.45
2023-05-24T09:38:33.352Z,97157.97
2023-05-24T09:41:08.687Z,97157.67
2023-05-24T09:43:49.755Z,97158.70
2023-05-24T09:46:19.929Z,97157.55
2023-05-24T09:48:58.403Z,97153.23
2023-05-24T09:51:27.027Z,97153.52
2023-05-24T09:54:02.144Z,97151.81
2023-05-24T09:56:32.789Z,97156.65
2023-05-24T09:59:07.288Z,97157.85
2023-05-24T10:01:36.370Z,97160.19
2023-05-24T10:04:09.424Z,97161.25
2023-05-24T10:06:39.298Z,97156.42
2023-05-24T10:09:09.791Z,97158.11
2023-05-24T10:11:37.703Z,97155.31
2023-05-24T10:14:07.612Z,97154.16
2023-05-24T10:16:38.024Z,97150.89
2023-05-24T10:19:07.278Z,97151.23
2023-05-24T10:21:40.094Z,97156.35
2023-05-24T10:24:11.298Z,97156.52
2023-05-24T10:26:40.699Z,97157.28
2023-05-24T10:29:16.949Z,97155.28
2023-05-24T10:31:46.717Z,97156.91
2023-05-24T10:34:15.601Z,97158.42
2023-05-24T10:36:44.868Z,97163.77
2023-05-24T10:39:13.015Z,97166.27
2023-05-24T10:41:42.168Z,97165.40
2023-05-24T10:44:12.351Z,97163.34
2023-05-24T10:47:02.577Z,97164.79
2023-05-24T10:49:31.385Z,97163.22
2023-05-24T10:52:08.378Z,97161.27
2023-05-24T10:54:39.768Z,97165.70
2023-05-24T10:57:10.920Z,97175.76
2023-05-24T10:59:39.743Z,97195.55
2023-05-24T11:02:16.453Z,97222.09
2023-05-24T11:04:49.260Z,97250.55
2023-05-24T11:07:19.482Z,97254.09
2023-05-24T11:09:53.173Z,97261.65
2023-05-24T11:12:21.527Z,97280.75
2023-05-24T11:14:51.520Z,97291.71
2023-05-24T11:17:22.410Z,97300.58
2023-05-24T11:19:53.322Z,97303.27
2023-05-24T11:22:25.487Z,97309.60
2023-05-24T11:24:53.774Z,97308.70
2023-05-24T11:27:22.246Z,97302.25
2023-05-24T11:29:50.424Z,97304.48
2023-05-24T11:32:21.912Z,97307.29
2023-05-24T11:34:51.126Z,97307.27
2023-05-24T11:37:19.597Z,97307.61
2023-05-24T11:39:54.544Z,97312.55
2023-05-24T11:42:23.711Z,97322.63
2023-05-24T11:44:51.678Z,97320.45
2023-05-24T11:47:21.847Z,97320.26
2023-05-24T11:49:51.458Z,97323.84
2023-05-24T11:52:19.645Z,97323.38
2023-05-24T11:54:48.544Z,97328.35
2023-05-24T11:57:22.002Z,97331.17
2023-05-24T11:59:50.430Z,97334.67
2023-05-24T12:02:19.821Z,97334.94
2023-05-24T12:04:47.950Z,97328.45
2023-05-24T12:07:17.890Z,97327.37
2023-05-24T12:09:46.821Z,97324.61
2023-05-24T12:12:14.878Z,97325.36
2023-05-24T12:14:42.788Z,97323.95
2023-05-24T12:17:17.874Z,97327.88
2023-05-24T12:19:50.317Z,97320.61
2023-05-24T12:22:18.356Z,97314.92
2023-05-24T12:24:50.708Z,97310.01
2023-05-24T12:27:18.872Z,97307.06
2023-05-24T12:29:48.992Z,97303.84
2023-05-24T12:32:17.752Z,97304.62
2023-05-24T12:34:46.050Z,97302.42
2023-05-24T12:37:15.049Z,97296.55
2023-05-24T12:39:44.280Z,97295.81
2023-05-24T12:42:16.201Z,97293.52
2023-05-24T12:44:45.253Z,97289.84
2023-05-24T12:47:13.506Z,97280.56
2023-05-24T12:49:41.470Z,97277.80
2023-05-24T12:52:09.530Z,97275.70
2023-05-24T12:54:37.566Z,97266.38
2023-05-24T12:57:06.305Z,97266.24
2023-05-24T12:59:35.086Z,97260.97
2023-05-24T13:02:03.445Z,97256.02
2023-05-24T13:04:33.823Z,97258.64
2023-05-24T13:07:03.353Z,97262.17
2023-05-24T13:09:31.580Z,97264.73
2023-05-24T13:11:59.517Z,97266.51
2023-05-24T13:14:27.872Z,97265.08
2023-05-24T13:16:55.868Z,97265.27
2023-05-24T13:19:24.038Z,97266.79
2023-05-24T13:21:52.517Z,97265.51
2023-05-24T13:24:20.957Z,97260.92
2023-05-24T13:26:50.074Z,97256.63
2023-05-24T13:29:34.260Z,97254.46
2023-05-24T13:32:08.002Z,97253.08
2023-05-24T13:34:37.053Z,97250.51
2023-05-24T13:37:05.400Z,97246.31
2023-05-24T13:39:35.340Z,97242.44
2023-05-24T13:42:03.385Z,97236.22
2023-05-24T13:44:32.555Z,97232.52
2023-05-24T13:47:00.628Z,97225.55
2023-05-24T13:49:29.115Z,97230.92
2023-05-24T13:51:58.583Z,97228.63
2023-05-24T13:54:27.772Z,97230.11
2023-05-24T13:56:57.633Z,97232.36
2023-05-24T13:59:27.164Z,97227.14
2023-05-24T14:01:55.217Z,97223.94
2023-05-24T14:04:23.457Z,97220.64
2023-05-24T14:06:51.491Z,97220.81
2023-05-24T14:09:21.478Z,97221.45
2023-05-24T14:11:49.687Z,97219.49
2023-05-24T14:16:51.734Z,97216.15
2023-05-24T14:19:19.810Z,97212.17
2023-05-24T14:21:47.829Z,97210.51
2023-05-24T14:24:15.900Z,97204.72
2023-05-24T14:26:43.886Z,97207.88
2023-05-24T14:29:11.989Z,97207.02
2023-05-24T14:31:42.852Z,97209.59
2023-05-24T14:34:11.664Z,97208.67
2023-05-24T14:36:41.610Z,97211.69
2023-05-24T14:39:09.570Z,97214.58
2023-05-24T14:41:37.766Z,97221.71
2023-05-24T14:44:05.831Z,97222.02
2023-05-24T14:46:33.880Z,97221.02
2023-05-24T14:49:02.575Z,97217.81
2023-05-24T14:51:30.606Z,97217.17
2023-05-24T14:53:58.624Z,97211.76
2023-05-24T14:56:27.619Z,97213.73
2023-05-24T14:58:55.635Z,97215.77
2023-05-24T15:01:23.804Z,97208.50
2023-05-24T15:03:52.091Z,97213.67
2023-05-24T15:06:20.052Z,97215.52
2023-05-24T15:08:48.102Z,97219.63
2023-05-24T15:11:17.657Z,97221.23
2023-05-24T15:13:46.165Z,97222.02
2023-05-24T15:16:14.183Z,97223.58
2023-05-24T15:18:42.188Z,97226.63
2023-05-24T15:21:10.492Z,97225.45
2023-05-24T15:23:38.537Z,97226.72
2023-05-24T15:26:06.595Z,97225.30
2023-05-24T15:28:34.491Z,97227.58
2023-05-24T15:31:03.768Z,97227.91
2023-05-24T15:33:32.899Z,97229.55
2023-05-24T15:36:00.926Z,97234.73
2023-05-24T15:38:28.829Z,97236.21
2023-05-24T15:40:56.693Z,97239.10
2023-05-24T15:43:24.958Z,97240.19
2023-05-24T15:45:53.666Z,97243.85
2023-05-24T15:48:22.797Z,97246.59
2023-05-24T15:53:22.880Z,97246.95
2023-05-24T15:55:51.834Z,97246.39
2023-05-24T15:58:20.080Z,97249.89
2023-05-24T16:00:48.026Z,97251.80
2023-05-24T16:03:16.257Z,97251.23
2023-05-24T16:05:44.517Z,97249.60
2023-05-24T16:08:13.305Z,97251.04
2023-05-24T16:10:41.531Z,97246.90
2023-05-24T16:13:10.578Z,97248.17
2023-05-24T16:15:40.948Z,97248.02
2023-05-24T16:18:09.009Z,97247.25
2023-05-24T16:20:37.259Z,97250.17
2023-05-24T16:23:05.471Z,97251.10
2023-05-24T16:25:33.485Z,97253.02
2023-05-24T16:28:01.483Z,97253.06
2023-05-24T16:30:29.763Z,97256.17
2023-05-24T16:32:57.771Z,97255.42
2023-05-24T16:35:25.809Z,97253.88
2023-05-24T16:37:55.927Z,97252.27
2023-05-24T16:40:23.871Z,97252.36
2023-05-24T16:42:53.744Z,97257.17
2023-05-24T16:45:21.905Z,97263.00
2023-05-24T16:47:50.099Z,97264.58
2023-05-24T16:50:18.264Z,97266.27
2023-05-24T16:52:46.195Z,97264.11
2023-05-24T16:55:16.008Z,97259.05
2023-05-24T16:57:44.106Z,97254.93
2023-05-24T17:00:12.661Z,97249.58
2023-05-24T17:02:40.853Z,97253.09
2023-05-24T17:05:09.569Z,97258.23
2023-05-24T17:07:37.948Z,97261.98
2023-05-24T17:10:06.903Z,97260.07
2023-05-24T17:12:35.621Z,97259.17
2023-05-24T17:15:05.329Z,97264.37
2023-05-24T17:17:33.310Z,97265.19
2023-05-24T17:20:01.516Z,97267.66
2023-05-24T17:22:29.934Z,97269.56
2023-05-24T17:24:57.789Z,97269.90
2023-05-24T17:27:25.860Z,97271.66
2023-05-24T17:29:54.030Z,97273.27
2023-05-24T17:32:22.223Z,97273.54
2023-05-24T17:34:50.320Z,97266.85
2023-05-24T17:37:18.535Z,97263.66
2023-05-24T17:39:46.803Z,97264.73
2023-05-24T17:42:14.911Z,97265.47
2023-05-24T17:44:43.702Z,97267.52
2023-05-24T17:47:11.907Z,97265.27
2023-05-24T17:49:40.074Z,97264.95
2023-05-24T17:52:08.057Z,97267.86
2023-05-24T17:54:36.333Z,97267.79
2023-05-24T17:57:04.771Z,97267.48
2023-05-24T17:59:33.616Z,97268.80
2023-05-24T18:02:01.525Z,97266.30
2023-05-24T18:04:30.365Z,97265.60
2023-05-24T18:06:58.486Z,97271.14
2023-05-24T18:09:27.515Z,97275.33
2023-05-24T18:11:55.351Z,97283.30
2023-05-24T18:14:23.567Z,97287.27
2023-05-24T18:16:51.690Z,97286.71
2023-05-24T18:19:20.596Z,97291.24
2023-05-24T18:21:49.217Z,97295.85
2023-05-24T18:24:17.185Z,97295.77
2023-05-24T18:26:47.286Z,97296.63
2023-05-24T18:29:15.657Z,97298.12
2023-05-24T18:31:44.056Z,97298.35
2023-05-24T18:34:12.512Z,97301.66
2023-05-24T18:36:40.431Z,97300.63
2023-05-24T18:39:08.321Z,97305.29
2023-05-24T18:41:36.275Z,97313.63
2023-05-24T18:44:04.142Z,97317.81
2023-05-24T18:46:33.281Z,97319.66
2023-05-24T18:49:03.138Z,97323.48
2023-05-24T18:51:31.227Z,97327.05
2023-05-24T18:53:59.198Z,97331.55
2023-05-24T18:56:28.235Z,97335.90
2023-05-24T18:58:58.779Z,97336.91
2023-05-24T19:01:28.285Z,97338.62
2023-05-24T19:03:56.427Z,97343.77
2023-05-24T19:06:24.376Z,97346.52
2023-05-24T19:08:52.615Z,97345.27
2023-05-24T19:11:21.250Z,97343.88
2023-05-24T19:13:49.070Z,97341.19
2023-05-24T19:16:18.347Z,97335.95
2023-05-24T19:18:46.500Z,97337.76
2023-05-24T19:21:15.018Z,97344.00
2023-05-24T19:23:43.054Z,97345.56
2023-05-24T19:26:11.300Z,97344.16
2023-05-24T19:28:41.659Z,97345.88
2023-05-24T19:31:09.999Z,97347.59
2023-05-24T19:33:48.532Z,97345.33
2023-05-24T19:36:25.906Z,97341.11
2023-05-24T19:38:54.925Z,97339.71
2023-05-24T19:41:22.995Z,97338.92
2023-05-24T19:43:51.025Z,97343.23
2023-05-24T19:46:19.108Z,97345.41
2023-05-24T19:48:47.186Z,97345.45
2023-05-24T19:51:15.794Z,97345.54
2023-05-24T19:53:44.390Z,97344.31
2023-05-24T19:56:12.357Z,97347.14
2023-05-24T19:58:40.426Z,97349.41
2023-05-24T20:01:08.599Z,97348.23
2023-05-24T20:03:36.652Z,97347.96
2023-05-24T20:06:04.723Z,97351.02
2023-05-24T20:08:32.657Z,97346.83
2023-05-24T20:11:00.616Z,97345.84
2023-05-24T20:13:28.900Z,97345.79
2023-05-24T20:15:57.190Z,97343.33
2023-05-24T20:18:25.299Z,97345.04
2023-05-24T20:20:55.227Z,97350.23
2023-05-24T20:23:27.489Z,97351.98
2023-05-24T20:25:58.279Z,97352.94
2023-05-24T20:28:31.276Z,97351.16
2023-05-24T20:30:59.953Z,97353.55
2023-05-24T20:33:27.997Z,97355.70
2023-05-24T20:35:56.241Z,97356.34
2023-05-24T20:38:24.450Z,97357.04
2023-05-24T20:40:52.386Z,97356.79
2023-05-24T20:43:20.660Z,97362.14
2023-05-24T20:45:48.642Z,97365.21
2023-05-24T20:48:16.704Z,97363.77
2023-05-24T20:50:44.706Z,97364.14
2023-05-24T20:53:12.755Z,97370.23
2023-05-24T20:55:40.852Z,97378.79
2023-05-24T20:58:08.905Z,97381.91
2023-05-24T21:00:39.510Z,97387.29
2023-05-24T21:03:08.001Z,97390.02
2023-05-24T21:05:38.102Z,97387.27
2023-05-24T21:08:06.595Z,97391.64
2023-05-24T21:10:35.584Z,97395.11
2023-05-24T21:13:03.796Z,97398.20
2023-05-24T21:15:31.906Z,97400.27
2023-05-24T21:17:59.888Z,97402.54
2023-05-24T21:20:28.188Z,97404.92
2023-05-24T21:22:56.441Z,97403.47
2023-05-24T21:25:24.602Z,97403.31
2023-05-24T21:27:52.499Z,97405.64
2023-05-24T21:30:20.388Z,97402.28
2023-05-24T21:32:48.448Z,97404.52
2023-05-24T21:35:16.716Z,97405.50
2023-05-24T21:37:45.084Z,97406.89
2023-05-24T21:40:13.170Z,97405.55
2023-05-24T21:42:41.438Z,97403.97
2023-05-24T21:45:09.784Z,97404.11
2023-05-24T21:47:37.942Z,97408.91
2023-05-24T21:50:06.563Z,97406.23
2023-05-24T21:52:34.926Z,97404.41
2023-05-24T21:55:02.902Z,97404.73
2023-05-24T21:57:30.908Z,97406.41
2023-05-24T21:59:59.033Z,97403.83
2023-05-24T22:02:26.940Z,97404.80
2023-05-24T22:04:55.203Z,97405.27
2023-05-24T22:07:23.138Z,97409.60
2023-05-24T22:09:51.422Z,97413.79
2023-05-24T22:12:19.345Z,97415.86
2023-05-24T22:14:47.334Z,97412.17
2023-05-24T22:17:16.473Z,97409.02
2023-05-24T22:19:44.439Z,97405.96
2023-05-24T22:22:12.543Z,97404.43
2023-05-24T22:24:40.889Z,97402.46
2023-05-24T22:27:13.602Z,97403.80
2023-05-24T22:29:41.765Z,97404.16
2023-05-24T22:32:09.782Z,97405.93
2023-05-24T22:34:37.838Z,97404.89
2023-05-24T22:37:06.830Z,97405.60
2023-05-24T22:39:34.893Z,97405.02
2023-05-24T22:42:03.104Z,97406.79
2023-05-24T22:44:31.113Z,97401.00
2023-05-24T22:47:02.091Z,97399.88
2023-05-24T22:49:34.114Z,97400.88
2023-05-24T22:52:02.391Z,97399.33
2023-05-24T22:54:30.254Z,97397.83
2023-05-24T22:56:58.181Z,97397.02
2023-05-24T22:59:26.232Z,97396.47
2023-05-24T23:01:54.200Z,97396.60
2023-05-24T23:04:22.356Z,97400.31
2023-05-24T23:06:53.190Z,97397.72
2023-05-24T23:09:29.471Z,97398.56
2023-05-24T23:11:58.496Z,97400.34
2023-05-24T23:14:30.358Z,97403.14
2023-05-24T23:17:02.520Z,97405.13
2023-05-24T23:19:31.418Z,97407.30
2023-05-24T23:21:59.279Z,97407.21
2023-05-24T23:24:27.183Z,97404.16
2023-05-24T23:26:56.043Z,97400.17
2023-05-24T23:29:24.082Z,97397.42
2023-05-24T23:31:52.256Z,97396.37
2023-05-24T23:34:20.237Z,97394.17
2023-05-24T23:36:48.147Z,97392.84
2023-05-24T23:39:16.384Z,97393.44
2023-05-24T23:41:44.616Z,97391.23
2023-05-24T23:44:12.480Z,97391.85
2023-05-24T23:46:42.044Z,97392.73
2023-05-24T23:49:09.953Z,97392.26
2023-05-24T23:51:38.011Z,97388.87
2023-05-24T23:54:06.092Z,97389.39
2023-05-24T23:56:34.039Z,97393.09
2023-05-24T23:59:02.682Z,97392.84
